METAR Data
IDs: Format: Raw Decoded Include TAF

Data at: 2118 UTC 19 May 2019

KRAS 192115Z AUTO 08012KT 7SM SCT007 BKN023 OVC027 28/25 A2982 RMK AO2 T02810255
KRAS 192055Z AUTO 09012KT 10SM BKN023 OVC027 28/25 A2983 RMK AO2 T02810254
KRAS 192035Z AUTO 09010KT 10SM SCT007 BKN022 OVC028 28/25 A2984 RMK AO2 T02820254
KRAS 192015Z AUTO 09010KT 10SM SCT009 BKN026 OVC043 28/25 A2985 RMK AO2 T02800253
KRAS 191955Z AUTO 08011KT 10SM SCT007 BKN027 OVC036 28/25 A2986 RMK AO2 T02810254
KRAS 191935Z AUTO 08010KT 7SM SCT020 BKN027 OVC035 28/25 A2986 RMK AO2 T02790254
KRAS 191915Z AUTO 09009KT 7SM SCT026 OVC032 28/25 A2986 RMK AO2 T02800253
KRAS 191855Z AUTO 10011KT 10SM OVC029 28/25 A2985 RMK AO2 T02820253
KRAS 191835Z AUTO 11010KT 7SM SCT008 SCT018 OVC028 28/25 A2985 RMK AO2 T02830254
KRAS 191815Z AUTO 11012KT 7SM SCT008 BKN017 OVC028 28/26 A2983 RMK AO2 T02840255
KRAS 191755Z AUTO 11010KT 7SM SCT008 SCT019 BKN025 29/26 A2985 RMK AO2 T02860257 10290 20261
KRAS 191735Z AUTO 11011KT 7SM SCT025 BKN035 29/26 A2986 RMK AO2 T02870257
KRAS 191715Z AUTO 10010KT 7SM SCT022 SCT027 OVC035 29/26 A2987 RMK AO2 T02860257
KRAS 191655Z AUTO 10009KT 7SM BKN026 BKN033 28/26 A2988 RMK AO2 T02840256
KRAS 191635Z AUTO 09007KT 7SM SCT023 BKN030 BKN035 29/26 A2988 RMK AO2 T02850256
KRAS 191615Z AUTO 10009KT 7SM SCT027 BKN033 28/25 A2987 RMK AO2 T02800254
KRAS 191555Z AUTO 10010KT 7SM SCT007 BKN029 OVC033 28/26 A2987 RMK AO2 T02820256
KRAS 191535Z AUTO 10007KT 7SM SCT014 SCT025 OVC032 28/25 A2987 RMK AO2 T02840255
KRAS 191515Z AUTO 11007KT 7SM BR OVC026 28/25 A2986 RMK AO2 LTG DSNT W T02800254
KRAS 191455Z AUTO 12006KT 7SM BR OVC026 28/26 A2985 RMK AO2 T02780257
KRAS 191435Z AUTO 13007KT 7SM BR BKN026 BKN032 28/25 A2985 RMK AO2 T02760253
KRAS 191415Z AUTO 11007KT 5SM BR BKN026 BKN032 28/26 A2984 RMK AO2 T02770256
KRAS 191355Z AUTO 11008KT 5SM BR SCT007 SCT012 OVC026 27/26 A2984 RMK AO2 T02700255
KRAS 191335Z AUTO 14006KT 5SM BR SCT010 SCT016 OVC027 27/26 A2984 RMK AO2 T02690255
KRAS 191315Z AUTO 12005KT 4SM BR SCT010 SCT022 OVC027 27/25 A2983 RMK AO2 T02680255
KRAS 191255Z AUTO 13005KT 4SM BR SCT009 BKN012 OVC027 27/25 A2983 RMK AO2 T02650254
KRAS 191235Z AUTO 13005KT 4SM BR SCT009 BKN021 OVC027 26/25 A2982 RMK AO2 T02640253
KRAS 191215Z AUTO 13007KT 4SM BR OVC025 26/25 A2981 RMK AO2 T02620252
KRAS 191155Z AUTO 14008KT 3 1/2SM BR SCT023 SCT028 26/25 A2980 RMK AO2 T02610252 10267 20261
KRAS 191135Z AUTO 15007KT 4SM BR SCT025 26/25 A2979 RMK AO2 T02620252
KRAS 191115Z AUTO 15007KT 5SM BR BKN025 26/25 A2978 RMK AO2 T02620251
KRAS 191055Z AUTO 15008KT 5SM BR OVC027 26/25 A2978 RMK AO2 T02620252
KRAS 191035Z AUTO 15009KT 5SM BR OVC027 26/25 A2977 RMK AO2 T02630252
KRAS 191015Z AUTO 15009KT 5SM BR SCT022 OVC027 26/25 A2977 RMK AO2 T02630252
KRAS 190955Z AUTO 14009KT 4SM BR SCT021 OVC027 26/25 A2977 RMK AO2 T02630253
KRAS 190935Z AUTO 14009KT 4SM BR SCT009 OVC027 26/25 A2976 RMK AO2 T02640253
KRAS 190915Z AUTO 14010KT 4SM BR SCT009 OVC027 26/25 A2976 RMK AO2 T02640253
KRAS 190855Z AUTO 16008KT 4SM BR SCT009 OVC027 26/25 A2976 RMK AO2 T02640253
KRAS 190835Z AUTO 15009KT 4SM BR BKN009 OVC027 26/25 A2975 RMK AO2 T02650254
KRAS 190815Z AUTO 15009KT 5SM BR OVC009 27/25 A2975 RMK AO2 T02660254
KRAS 190755Z AUTO 15008KT 5SM BR BKN011 BKN016 OVC027 27/25 A2975 RMK AO2 T02660254
KRAS 190735Z AUTO 15009KT 5SM BR BKN011 BKN014 OVC027 27/25 A2975 RMK AO2 T02660254
KRAS 190715Z AUTO 15009KT 5SM BR BKN011 OVC027 27/25 A2975 RMK AO2 T02660254
KRAS 190655Z AUTO 15010KT 7SM BR SCT011 SCT014 OVC027 27/25 A2975 RMK AO2 T02660254
KRAS 190635Z AUTO 15010KT 7SM BR SCT011 SCT014 OVC027 27/25 A2975 RMK AO2 T02660254
KRAS 190615Z AUTO 15008KT 7SM BR BKN011 OVC027 27/25 A2976 RMK AO2 T02670254
KRAS 190555Z AUTO 15010KT 7SM BR BKN011 OVC027 27/25 A2976 RMK AO2 T02670254 10274 20267
KRAS 190535Z AUTO 15010KT 7SM BR SCT011 SCT015 OVC025 27/25 A2976 RMK AO2 T02680255
KRAS 190515Z AUTO 15010G16KT 7SM BR SCT011 OVC025 27/25 A2976 RMK AO2 T02690254
KRAS 190455Z AUTO 16011G15KT 7SM SCT011 SCT019 OVC025 27/25 A2976 RMK AO2 T02690253
KRAS 190435Z AUTO 14009KT 7SM BR BKN011 OVC019 27/25 A2976 RMK AO2 T02680254
KRAS 190415Z AUTO 14011KT 7SM BR BKN009 OVC015 27/25 A2975 RMK AO2 T02690254
KRAS 190355Z AUTO 14010KT 7SM BR OVC009 27/26 A2975 RMK AO2 T02690255
KRAS 190335Z AUTO 14010KT 7SM BR BKN009 OVC013 27/26 A2973 RMK AO2 T02680255
KRAS 190315Z AUTO 14011KT 7SM BKN013 OVC020 27/25 A2972 RMK AO2 T02680254
KRAS 190255Z AUTO 14013G19KT 7SM BR SCT012 OVC020 27/25 A2971 RMK AO2 T02670254
KRAS 190235Z AUTO 14013G18KT 7SM SCT010 OVC018 27/25 A2970 RMK AO2 T02680254
KRAS 190215Z AUTO 14015G19KT 7SM BR SCT010 OVC020 27/25 A2969 RMK AO2 T02680254
KRAS 190155Z AUTO 14015G20KT 7SM BR OVC018 27/25 A2968 RMK AO2 T02680254
KRAS 190135Z AUTO 13013G20KT 7SM BR OVC018 27/25 A2967 RMK AO2 T02690253
KRAS 190115Z AUTO 13012G18KT 5SM BR SCT015 OVC020 27/25 A2967 RMK AO2 T02690254
KRAS 190055Z AUTO 13015KT 5SM BR SCT008 OVC018 27/25 A2967 RMK AO2 T02700254
KRAS 190035Z AUTO 13015KT 5SM BR OVC008 27/25 A2966 RMK AO2 T02710255
KRAS 190015Z AUTO 13014KT 7SM BR OVC008 27/25 A2966 RMK AO2 T02720254
KRAS 182355Z AUTO 13012G19KT 7SM BR OVC010 27/25 A2966 RMK AO2 T02730254 10297 20273 402970260
KRAS 182335Z AUTO 13013G19KT 7SM BR OVC010 28/25 A2966 RMK AO2 T02770255
KRAS 182315Z AUTO 13013G20KT 7SM BR BKN010 OVC016 27/25 A2966 RMK AO2 T02740254
KRAS 182255Z AUTO 13016G21KT 7SM BR OVC013 28/25 A2966 RMK AO2 T02790254
KRAS 182235Z AUTO 13013G17KT 7SM OVC011 28/25 A2967 RMK AO2 T02820254
KRAS 182215Z AUTO 13013KT 7SM OVC011 28/26 A2967 RMK AO2 T02830255
KRAS 182155Z AUTO 14014G23KT 7SM OVC009 28/25 A2966 RMK AO2 T02850254
KRAS 182135Z AUTO 14015G19KT 7SM OVC013 28/25 A2966 RMK AO2 T02830254
KRAS 182115Z AUTO 13016KT 7SM BKN011 OVC027 29/25 A2968 RMK AO2 T02860253
KRAS 182055Z AUTO 13015G21KT 7SM SCT011 SCT016 OVC029 29/25 A2968 RMK AO2 T02890254
KRAS 182035Z AUTO 14015G21KT 7SM SCT009 SCT013 OVC029 29/25 A2969 RMK AO2 T02870252
KRAS 182015Z AUTO 13017G21KT 7SM BKN013 BKN022 OVC027 29/25 A2970 RMK AO2 T02920252
KRAS 181955Z AUTO 13016G21KT 10SM SCT015 SCT020 OVC025 29/25 A2969 RMK AO2 T02920253
KRAS 181935Z AUTO 14015G22KT 7SM SCT015 OVC025 29/25 A2969 RMK AO2 T02950254
KRAS 181915Z AUTO 14013KT 7SM SCT015 OVC025 29/25 A2972 RMK AO2 T02890253
KRAS 181855Z AUTO 15015G22KT 7SM BKN015 BKN022 OVC029 29/25 A2974 RMK AO2
KRAS 181835Z AUTO 14017G21KT 10SM BKN013 BKN019 OVC030 28/25 A2973 RMK AO2 T02840251
KRAS 181815Z AUTO 14013G21KT 7SM BKN013 BKN019 OVC027 28/25 A2973 RMK AO2 T02820250
KRAS 181755Z AUTO 14017G22KT 7SM SCT013 BKN024 OVC050 28/25 A2973 RMK AO2 T02820249 10286 20261
KRAS 181735Z AUTO 14017G23KT 7SM SCT017 SCT026 OVC050 28/25 A2972 RMK AO2 T02810248
KRAS 181715Z AUTO 13018G22KT 7SM SCT015 BKN027 OVC048 28/25 A2972 RMK AO2 T02840249
KRAS 181655Z AUTO 14016G23KT 7SM BKN015 BKN021 OVC046 28/25 A2973 RMK AO2 T02790249
KRAS 181635Z AUTO 13014G20KT 7SM SCT015 BKN031 OVC043 28/25 A2974 RMK AO2 T02780249
KRAS 181615Z AUTO 13015G20KT 7SM SCT013 SCT023 OVC041 28/25 A2975 RMK AO2 T02810250
KRAS 181555Z AUTO 13014G19KT 7SM SCT013 SCT024 OVC041 28/25 A2975 RMK AO2 T02770249
KRAS 181535Z AUTO 14015G21KT 7SM SCT011 BKN031 OVC041 28/25 A2976 RMK AO2 T02790249
KRAS 181515Z AUTO 13011G18KT 7SM SCT015 BKN024 OVC031 28/25 A2976 RMK AO2 T02770250
KRAS 181455Z AUTO 14011G19KT 7SM BR BKN012 BKN019 OVC037 27/25 A2976 RMK AO2 T02720250
KRAS 181435Z AUTO 14013KT 7SM SCT012 BKN039 OVC046 28/25 A2977 RMK AO2 T02750250
KRAS 181415Z AUTO 14012KT 7SM SCT012 BKN041 OVC047 27/25 A2976 RMK AO2 T02720251
KRAS 181355Z AUTO 14011KT 7SM BR BKN012 BKN017 OVC025 27/25 A2977 RMK AO2 T02680250
KRAS 181335Z AUTO 14012KT 7SM BR SCT010 BKN013 OVC026 27/25 A2975 RMK AO2 T02680250
KRAS 181315Z AUTO 13011G17KT 5SM BR OVC010 26/25 A2975 RMK AO2 T02640249
KRAS 181255Z AUTO 14011G16KT 5SM BR BKN010 BKN015 OVC029 26/25 A2975 RMK AO2 T02630249
KRAS 181235Z AUTO 14010G18KT 7SM BR OVC010 26/25 A2975 RMK AO2 T02630250
KRAS 181215Z AUTO 14012KT 5SM BR BKN010 OVC017 26/25 A2974 RMK AO2 T02620249
KRAS 181155Z AUTO 14013KT 5SM BR BKN010 OVC013 26/25 A2974 RMK AO2 T02610249 10262 20260
KRAS 181135Z AUTO 13012KT 7SM BR BKN010 OVC036 26/25 A2974 RMK AO2 T02610249
KRAS 181115Z AUTO 14011KT 7SM SCT010 SCT014 OVC036 26/25 A2974 RMK AO2 T02620249
KRAS 181055Z AUTO 14015G18KT 7SM BKN010 BKN014 OVC036 26/25 A2974 RMK AO2 T02610248
KRAS 181035Z AUTO 14012G18KT 7SM OVC010 26/25 A2974 RMK AO2 T02610248
KRAS 181015Z AUTO 14013G18KT 7SM OVC010 26/25 A2974 RMK AO2 T02610248
KRAS 180955Z AUTO 14015G20KT 7SM BKN010 BKN027 OVC034 26/25 A2974 RMK AO2 T02610247
KRAS 180935Z AUTO 14016KT 7SM SCT010 BKN034 OVC040 26/25 A2974 RMK AO2 T02600246